Time;durP1;ratioP1;P1;durP2;ratioP2;P2;SDS_P1;SDS_P2;PMS_P1;PMS_P2;Temp;Humidity;BMP_temperature;BMP_pressure;BME280_temperature;BME280_humidity;BME280_pressure;Samples;Min_cycle;Max_cycle;Signal;HPM_P1;HPM_P2
2022/05/14 00:01:21;;;;;;;9.52;2.63;;;;;;;;;;5054387;28;20464;-76
2022/05/14 00:03:47;;;;;;;6.60;2.70;;;;;;;;;;5036103;28;20127;-77
2022/05/14 00:06:17;;;;;;;5.00;2.67;;;;;;;;;;5053526;28;20032;-76
2022/05/14 00:08:43;;;;;;;9.98;3.40;;;;;;;;;;5052834;28;20060;-76
2022/05/14 00:13:53;;;;;;;7.10;3.33;;;;;;;;;;5053685;28;20083;-74
2022/05/14 00:16:21;;;;;;;6.28;2.65;;;;;;;;;;5053233;28;20025;-76
2022/05/14 00:18:47;;;;;;;8.95;2.78;;;;;;;;;;5054306;28;20064;-75
2022/05/14 00:21:14;;;;;;;7.18;2.70;;;;;;;;;;5052514;28;20123;-76
2022/05/14 00:23:39;;;;;;;6.50;3.00;;;;;;;;;;5052795;28;20119;-76
2022/05/14 00:26:05;;;;;;;5.63;2.75;;;;;;;;;;5035915;28;20097;-76
2022/05/14 00:28:32;;;;;;;9.90;2.85;;;;;;;;;;5053207;28;20060;-75
2022/05/14 00:30:58;;;;;;;9.13;3.55;;;;;;;;;;5052495;28;20029;-76
2022/05/14 00:33:24;;;;;;;5.10;2.55;;;;;;;;;;5052005;28;20039;-75
2022/05/14 00:35:50;;;;;;;4.97;2.75;;;;;;;;;;5054018;28;20024;-76
2022/05/14 00:38:16;;;;;;;7.75;3.00;;;;;;;;;;5053377;28;20049;-75
2022/05/14 00:40:53;;;;;;;7.47;3.00;;;;;;;;;;5053686;28;20102;-76
2022/05/14 00:43:19;;;;;;;5.32;3.47;;;;;;;;;;5052699;28;20021;-74
2022/05/14 00:46:04;;;;;;;5.53;3.38;;;;;;;;;;5052028;28;20507;-75
2022/05/14 00:48:36;;;;;;;6.78;3.80;;;;;;;;;;5052393;28;20401;-76
2022/05/14 00:51:02;;;;;;;17.08;7.53;;;;;;;;;;5051753;28;20024;-76
2022/05/14 00:53:35;;;;;;;5.80;3.38;;;;;;;;;;5051734;28;20028;-75
2022/05/14 00:56:05;;;;;;;8.82;3.17;;;;;;;;;;5035270;28;20029;-76
2022/05/14 00:58:56;;;;;;;8.63;3.13;;;;;;;;;;5052139;28;20115;-76
2022/05/14 01:01:22;;;;;;;4.57;3.03;;;;;;;;;;5029210;28;20052;-75
2022/05/14 01:03:47;;;;;;;7.10;3.17;;;;;;;;;;5052605;28;20029;-76
2022/05/14 01:06:17;;;;;;;4.95;3.08;;;;;;;;;;5034625;28;20107;-75
2022/05/14 01:08:44;;;;;;;3.35;2.83;;;;;;;;;;5034385;28;20044;-78
2022/05/14 01:11:11;;;;;;;6.15;2.63;;;;;;;;;;5035877;28;20043;-76
2022/05/14 01:13:37;;;;;;;5.40;2.80;;;;;;;;;;5052035;28;20070;-76
2022/05/14 01:16:04;;;;;;;8.63;3.50;;;;;;;;;;5034699;28;20020;-76
2022/05/14 01:18:32;;;;;;;3.78;2.95;;;;;;;;;;5051823;28;20029;-75
2022/05/14 01:21:17;;;;;;;8.80;3.08;;;;;;;;;;5051041;28;20511;-74
2022/05/14 01:26:51;;;;;;;4.97;2.80;;;;;;;;;;5052696;28;20039;-76
2022/05/14 01:29:22;;;;;;;6.07;3.78;;;;;;;;;;5034401;28;20028;-76
2022/05/14 01:31:50;;;;;;;5.45;2.90;;;;;;;;;;5051805;28;20456;-76
2022/05/14 01:34:22;;;;;;;3.13;2.83;;;;;;;;;;5050322;28;20037;-77
2022/05/14 01:36:48;;;;;;;4.82;2.50;;;;;;;;;;5051794;28;20473;-75
2022/05/14 01:39:14;;;;;;;6.00;2.50;;;;;;;;;;5051421;28;20088;-75
2022/05/14 01:41:39;;;;;;;6.07;2.25;;;;;;;;;;5050547;28;20033;-76
2022/05/14 01:44:06;;;;;;;5.05;2.80;;;;;;;;;;5034017;28;20028;-77
2022/05/14 01:46:31;;;;;;;13.52;6.60;;;;;;;;;;5050608;28;20369;-76
2022/05/14 01:48:57;;;;;;;9.02;2.92;;;;;;;;;;5052314;28;20035;-75
2022/05/14 01:51:23;;;;;;;7.47;2.80;;;;;;;;;;5034189;28;20499;-76
2022/05/14 01:53:48;;;;;;;5.70;3.30;;;;;;;;;;5033583;28;20025;-77
2022/05/14 01:56:14;;;;;;;6.45;2.85;;;;;;;;;;5034822;28;20028;-78
2022/05/14 01:58:40;;;;;;;6.70;3.33;;;;;;;;;;5052831;28;20040;-76
2022/05/14 02:01:11;;;;;;;8.10;2.92;;;;;;;;;;5052267;28;20033;-76
2022/05/14 02:03:37;;;;;;;4.30;3.03;;;;;;;;;;5051918;28;20489;-76
2022/05/14 02:06:04;;;;;;;6.65;2.83;;;;;;;;;;5052716;28;20037;-76
2022/05/14 02:08:29;;;;;;;5.38;2.95;;;;;;;;;;5050935;28;20082;-75
2022/05/14 02:10:55;;;;;;;7.90;2.65;;;;;;;;;;5051788;28;20114;-76
2022/05/14 02:13:21;;;;;;;4.60;2.60;;;;;;;;;;5051494;28;20044;-77
2022/05/14 02:15:46;;;;;;;11.82;3.70;;;;;;;;;;5033326;28;20020;-78
2022/05/14 02:18:13;;;;;;;4.47;2.72;;;;;;;;;;5033962;28;20029;-76
2022/05/14 02:20:38;;;;;;;7.43;3.00;;;;;;;;;;5051704;28;20412;-75
2022/05/14 02:23:04;;;;;;;6.82;3.35;;;;;;;;;;5050686;28;20021;-75
2022/05/14 02:25:29;;;;;;;6.32;3.25;;;;;;;;;;5051633;28;20049;-76
2022/05/14 02:27:55;;;;;;;5.20;2.73;;;;;;;;;;5050848;28;20025;-77
2022/05/14 02:30:21;;;;;;;10.63;2.75;;;;;;;;;;5051201;28;20369;-76
2022/05/14 02:32:46;;;;;;;6.93;3.27;;;;;;;;;;5051348;28;20055;-76
2022/05/14 02:35:12;;;;;;;4.15;2.53;;;;;;;;;;5049958;28;20065;-75
2022/05/14 02:37:37;;;;;;;4.28;3.25;;;;;;;;;;5050328;28;20028;-75
2022/05/14 02:40:04;;;;;;;9.55;3.22;;;;;;;;;;5033539;28;20132;-77
2022/05/14 02:42:29;;;;;;;4.15;2.90;;;;;;;;;;5050705;28;20063;-77
2022/05/14 02:44:55;;;;;;;4.80;2.78;;;;;;;;;;5050670;28;20056;-77
2022/05/14 02:47:20;;;;;;;5.30;2.87;;;;;;;;;;5051292;28;20104;-76
2022/05/14 02:49:46;;;;;;;4.07;3.20;;;;;;;;;;5051279;28;20024;-75
2022/05/14 02:52:12;;;;;;;5.22;2.78;;;;;;;;;;5049703;28;20021;-76
2022/05/14 02:54:38;;;;;;;9.48;2.75;;;;;;;;;;5050228;28;20081;-76
2022/05/14 02:57:05;;;;;;;4.33;2.90;;;;;;;;;;5051389;28;20028;-76
2022/05/14 02:59:30;;;;;;;5.63;3.50;;;;;;;;;;5051514;28;20154;-76
2022/05/14 03:01:56;;;;;;;9.43;3.10;;;;;;;;;;5033139;28;20053;-76
2022/05/14 03:04:30;;;;;;;4.38;2.85;;;;;;;;;;5033308;28;20119;-77
2022/05/14 03:06:57;;;;;;;4.40;3.07;;;;;;;;;;5052924;28;20037;-78
2022/05/14 03:09:24;;;;;;;11.30;3.40;;;;;;;;;;5054468;28;20052;-75
2022/05/14 03:11:50;;;;;;;6.30;3.07;;;;;;;;;;5052935;28;20033;-77
2022/05/14 03:14:16;;;;;;;5.90;2.87;;;;;;;;;;5054750;28;20031;-77
2022/05/14 03:16:43;;;;;;;8.77;3.50;;;;;;;;;;5053180;28;20031;-75
2022/05/14 03:19:10;;;;;;;8.27;3.23;;;;;;;;;;5055200;28;20025;-75
2022/05/14 03:21:37;;;;;;;6.27;3.67;;;;;;;;;;5054858;28;20036;-74
2022/05/14 03:24:03;;;;;;;5.93;3.07;;;;;;;;;;5053281;28;20441;-75
2022/05/14 03:26:28;;;;;;;8.13;3.20;;;;;;;;;;5053001;28;20048;-76
2022/05/14 03:28:54;;;;;;;5.37;3.03;;;;;;;;;;5054288;28;20060;-76
2022/05/14 03:31:20;;;;;;;5.63;3.30;;;;;;;;;;5036179;28;20020;-75
2022/05/14 03:33:45;;;;;;;3.37;2.67;;;;;;;;;;5036268;28;20473;-75
2022/05/14 03:36:11;;;;;;;8.33;3.40;;;;;;;;;;5035792;28;20357;-77
2022/05/14 03:38:37;;;;;;;13.27;3.40;;;;;;;;;;5052447;28;20531;-76
2022/05/14 03:41:04;;;;;;;3.50;3.03;;;;;;;;;;5054491;28;20071;-76
2022/05/14 03:43:30;;;;;;;8.03;3.17;;;;;;;;;;5054371;28;20511;-76
2022/05/14 03:45:56;;;;;;;7.80;3.07;;;;;;;;;;5036232;28;20025;-75
2022/05/14 03:48:22;;;;;;;4.40;3.40;;;;;;;;;;5036344;28;20508;-77
2022/05/14 03:50:48;;;;;;;5.17;3.03;;;;;;;;;;5053563;28;20108;-77
2022/05/14 03:53:14;;;;;;;6.73;3.70;;;;;;;;;;5036428;28;20385;-75
2022/05/14 03:55:40;;;;;;;6.63;3.53;;;;;;;;;;5054855;28;20029;-76
2022/05/14 03:58:05;;;;;;;7.60;3.00;;;;;;;;;;5054245;28;20025;-76
2022/05/14 04:00:31;;;;;;;3.50;3.10;;;;;;;;;;5054028;28;20032;-76
2022/05/14 04:02:56;;;;;;;4.87;3.17;;;;;;;;;;5035919;28;20028;-75
2022/05/14 04:05:22;;;;;;;7.33;3.90;;;;;;;;;;5054175;28;20025;-76
2022/05/14 04:07:48;;;;;;;5.43;3.43;;;;;;;;;;5052187;28;20032;-75
2022/05/14 04:10:16;;;;;;;8.37;3.40;;;;;;;;;;5053271;28;20017;-75
2022/05/14 04:12:42;;;;;;;4.90;3.10;;;;;;;;;;5035654;28;20366;-77
2022/05/14 04:15:09;;;;;;;6.47;3.63;;;;;;;;;;5054234;28;20029;-77
2022/05/14 04:17:35;;;;;;;7.70;3.57;;;;;;;;;;5052859;28;20082;-74
2022/05/14 04:20:01;;;;;;;4.50;3.03;;;;;;;;;;5053677;28;20033;-75
2022/05/14 04:22:27;;;;;;;4.37;3.30;;;;;;;;;;5052431;28;20020;-76
2022/05/14 04:24:52;;;;;;;5.20;3.00;;;;;;;;;;5036051;28;20124;-76
2022/05/14 04:27:18;;;;;;;11.90;3.47;;;;;;;;;;5035576;28;20053;-77
2022/05/14 04:29:45;;;;;;;6.30;3.00;;;;;;;;;;5035541;28;20032;-75
2022/05/14 04:32:11;;;;;;;5.27;3.27;;;;;;;;;;5053300;28;20108;-75
2022/05/14 04:34:37;;;;;;;7.70;3.70;;;;;;;;;;5054084;28;20441;-76
2022/05/14 04:37:03;;;;;;;9.03;3.53;;;;;;;;;;5052951;28;20480;-76
2022/05/14 04:39:34;;;;;;;9.17;3.50;;;;;;;;;;5051652;28;20103;-76
2022/05/14 04:42:01;;;;;;;11.23;3.08;;;;;;;;;;5051980;28;20033;-76
2022/05/14 04:44:28;;;;;;;4.00;3.30;;;;;;;;;;5053401;28;20108;-76
2022/05/14 04:46:54;;;;;;;4.43;3.33;;;;;;;;;;5035664;28;20028;-76
2022/05/14 04:49:20;;;;;;;8.40;3.53;;;;;;;;;;5053369;28;20036;-76
2022/05/14 04:51:46;;;;;;;13.83;3.40;;;;;;;;;;5053413;28;20112;-76
2022/05/14 04:54:11;;;;;;;5.43;3.00;;;;;;;;;;5051878;28;20040;-75
2022/05/14 04:56:37;;;;;;;13.83;3.50;;;;;;;;;;5053286;28;20025;-76
2022/05/14 04:59:03;;;;;;;4.63;3.20;;;;;;;;;;5034943;28;20071;-76
2022/05/14 05:01:28;;;;;;;4.90;3.23;;;;;;;;;;5052230;28;20107;-77
2022/05/14 05:03:54;;;;;;;7.63;4.00;;;;;;;;;;5053401;28;20029;-77
2022/05/14 05:06:23;;;;;;;4.87;2.77;;;;;;;;;;5052583;28;20483;-77
2022/05/14 05:08:51;;;;;;;5.17;3.30;;;;;;;;;;5053386;28;20059;-76
2022/05/14 05:11:18;;;;;;;4.97;3.30;;;;;;;;;;5051988;28;20075;-76
2022/05/14 05:13:44;;;;;;;5.23;3.37;;;;;;;;;;5053370;28;20032;-77
2022/05/14 05:16:10;;;;;;;9.77;3.30;;;;;;;;;;5052124;28;20453;-77
2022/05/14 05:18:35;;;;;;;4.38;3.13;;;;;;;;;;5053938;28;20052;-77
2022/05/14 05:21:01;;;;;;;3.55;3.25;;;;;;;;;;5052941;28;20033;-76
2022/05/14 05:23:27;;;;;;;9.63;2.90;;;;;;;;;;5052979;28;20036;-78
2022/05/14 05:25:54;;;;;;;5.83;2.90;;;;;;;;;;5034592;28;20035;-77
2022/05/14 05:28:20;;;;;;;7.28;3.60;;;;;;;;;;5053049;28;20025;-75
2022/05/14 05:30:46;;;;;;;3.65;2.92;;;;;;;;;;5052994;28;20029;-75
2022/05/14 05:33:15;;;;;;;7.40;2.90;;;;;;;;;;5052118;28;20036;-76
2022/05/14 05:35:41;;;;;;;8.65;3.45;;;;;;;;;;5034759;28;20060;-76
2022/05/14 05:38:07;;;;;;;6.75;3.72;;;;;;;;;;5052406;28;20122;-76
2022/05/14 05:40:33;;;;;;;6.55;3.05;;;;;;;;;;5052292;28;20132;-75
2022/05/14 05:42:59;;;;;;;6.07;3.35;;;;;;;;;;5052770;28;20040;-76
2022/05/14 05:45:25;;;;;;;5.55;3.50;;;;;;;;;;5051784;28;20039;-76
2022/05/14 05:47:51;;;;;;;9.77;3.53;;;;;;;;;;5052764;28;20024;-77
2022/05/14 05:50:16;;;;;;;9.00;4.32;;;;;;;;;;5052409;28;20083;-76
2022/05/14 05:52:42;;;;;;;7.20;3.00;;;;;;;;;;5052072;28;20028;-76
2022/05/14 05:57:52;;;;;;;6.65;4.47;;;;;;;;;;5052080;28;20043;-75
2022/05/14 06:00:22;;;;;;;6.18;3.40;;;;;;;;;;5052258;28;20396;-76
2022/05/14 06:02:47;;;;;;;6.63;3.40;;;;;;;;;;5051826;28;20024;-75
2022/05/14 06:05:14;;;;;;;5.95;2.53;;;;;;;;;;5050707;28;20039;-75
2022/05/14 06:07:40;;;;;;;6.68;3.00;;;;;;;;;;5052009;28;20453;-77
2022/05/14 06:10:10;;;;;;;4.93;2.90;;;;;;;;;;5034155;28;20460;-76
2022/05/14 06:12:38;;;;;;;8.68;3.22;;;;;;;;;;5053278;28;20032;-76
2022/05/14 06:15:06;;;;;;;8.90;3.28;;;;;;;;;;5051718;28;20433;-76
2022/05/14 06:17:32;;;;;;;6.70;3.33;;;;;;;;;;5034478;28;20052;-75
2022/05/14 06:19:57;;;;;;;9.45;4.15;;;;;;;;;;5033565;28;20079;-76
2022/05/14 06:22:23;;;;;;;6.30;3.22;;;;;;;;;;5032853;28;20443;-77
2022/05/14 06:24:48;;;;;;;7.20;3.00;;;;;;;;;;5052316;28;20071;-78
2022/05/14 06:27:14;;;;;;;5.47;3.35;;;;;;;;;;5033408;28;20102;-77
2022/05/14 06:29:39;;;;;;;5.40;3.08;;;;;;;;;;5033215;28;20024;-78
2022/05/14 06:32:05;;;;;;;5.82;3.35;;;;;;;;;;5049814;28;20029;-76
2022/05/14 06:34:31;;;;;;;8.07;3.25;;;;;;;;;;5049862;28;20079;-79
2022/05/14 06:36:56;;;;;;;4.63;2.95;;;;;;;;;;5050722;28;20060;-75
2022/05/14 06:39:22;;;;;;;7.43;3.65;;;;;;;;;;5051500;28;20053;-75
2022/05/14 06:41:48;;;;;;;5.32;3.15;;;;;;;;;;5054058;28;20029;-77
2022/05/14 06:44:14;;;;;;;5.90;3.40;;;;;;;;;;5036655;28;20032;-76
2022/05/14 06:46:39;;;;;;;6.95;2.95;;;;;;;;;;5053591;28;20478;-76
2022/05/14 06:49:05;;;;;;;8.23;2.85;;;;;;;;;;5054303;28;20040;-78
2022/05/14 06:51:32;;;;;;;3.28;2.35;;;;;;;;;;5055686;28;20039;-78
2022/05/14 06:54:08;;;;;;;6.50;2.75;;;;;;;;;;5054892;28;20048;-76
2022/05/14 06:56:39;;;;;;;3.75;2.38;;;;;;;;;;5054218;28;20536;-74
2022/05/14 06:59:05;;;;;;;7.50;2.28;;;;;;;;;;5053764;28;20040;-76
2022/05/14 07:01:30;;;;;;;6.45;2.88;;;;;;;;;;5053339;28;20118;-77
2022/05/14 07:06:48;;;;;;;4.40;2.10;;;;;;;;;;5055504;28;20408;-75
2022/05/14 07:09:24;;;;;;;4.45;2.20;;;;;;;;;;5036463;28;20266;-77
2022/05/14 07:11:52;;;;;;;10.38;3.00;;;;;;;;;;5054568;28;20025;-76
2022/05/14 07:14:18;;;;;;;5.50;2.58;;;;;;;;;;5052870;28;20032;-77
2022/05/14 07:16:45;;;;;;;9.30;2.65;;;;;;;;;;5037210;28;20400;-75
2022/05/14 07:19:11;;;;;;;5.78;2.53;;;;;;;;;;5036053;28;20048;-76
2022/05/14 07:21:39;;;;;;;3.72;2.17;;;;;;;;;;5052754;28;20098;-75
2022/05/14 07:24:07;;;;;;;4.63;2.17;;;;;;;;;;5035934;28;20025;-74
2022/05/14 07:26:35;;;;;;;11.73;4.72;;;;;;;;;;5054170;28;20041;-76
2022/05/14 07:29:06;;;;;;;8.05;2.65;;;;;;;;;;5052857;28;20029;-79
2022/05/14 07:31:31;;;;;;;3.20;2.13;;;;;;;;;;5035944;28;20025;-77
2022/05/14 07:33:58;;;;;;;3.85;1.70;;;;;;;;;;5054092;28;20035;-77
2022/05/14 07:36:25;;;;;;;8.70;2.25;;;;;;;;;;5054356;28;20515;-75
2022/05/14 07:38:54;;;;;;;4.38;1.55;;;;;;;;;;5052157;28;20155;-77
2022/05/14 07:41:19;;;;;;;5.00;1.60;;;;;;;;;;5051986;28;20113;-75
2022/05/14 07:43:49;;;;;;;8.90;2.17;;;;;;;;;;5053668;28;20108;-77
2022/05/14 07:46:19;;;;;;;4.80;1.60;;;;;;;;;;5053661;28;20040;-77
2022/05/14 07:48:47;;;;;;;5.70;1.98;;;;;;;;;;5035714;28;20028;-76
2022/05/14 07:51:13;;;;;;;5.40;1.98;;;;;;;;;;5053246;28;20521;-78
2022/05/14 07:53:39;;;;;;;6.20;2.00;;;;;;;;;;5034180;28;20020;-76
2022/05/14 07:56:08;;;;;;;5.15;1.80;;;;;;;;;;5052280;28;20047;-75
2022/05/14 07:58:34;;;;;;;4.38;1.73;;;;;;;;;;5052218;28;20462;-77
2022/05/14 08:01:00;;;;;;;4.50;2.17;;;;;;;;;;5053451;28;20032;-78
2022/05/14 08:03:26;;;;;;;4.63;1.70;;;;;;;;;;5053414;28;20246;-77
2022/05/14 08:05:56;;;;;;;4.43;1.45;;;;;;;;;;5052568;28;20025;-79
2022/05/14 08:08:22;;;;;;;4.63;1.63;;;;;;;;;;5053513;28;20128;-76
2022/05/14 08:10:49;;;;;;;5.18;1.80;;;;;;;;;;5053675;28;20075;-77
2022/05/14 08:13:19;;;;;;;6.20;1.88;;;;;;;;;;5052300;28;20439;-77
2022/05/14 08:15:47;;;;;;;6.43;1.88;;;;;;;;;;5052500;28;20029;-77
2022/05/14 08:18:13;;;;;;;6.75;1.92;;;;;;;;;;5051248;28;20029;-77
2022/05/14 08:20:39;;;;;;;7.68;1.88;;;;;;;;;;5052814;28;20057;-76
2022/05/14 08:25:51;;;;;;;6.28;1.77;;;;;;;;;;5053204;28;20158;-76
2022/05/14 08:28:17;;;;;;;6.47;1.40;;;;;;;;;;5035239;28;20037;-77
2022/05/14 08:30:43;;;;;;;5.03;1.63;;;;;;;;;;5053185;28;20056;-76
2022/05/14 08:33:08;;;;;;;3.95;1.65;;;;;;;;;;5053418;28;20029;-77
2022/05/14 08:35:36;;;;;;;6.43;1.48;;;;;;;;;;5034884;28;20071;-77
2022/05/14 08:38:01;;;;;;;2.08;1.25;;;;;;;;;;5052468;28;20091;-78
2022/05/14 08:40:31;;;;;;;2.50;1.35;;;;;;;;;;5053055;28;20497;-78
2022/05/14 08:43:04;;;;;;;2.65;1.40;;;;;;;;;;5053037;28;20033;-76
2022/05/14 08:45:34;;;;;;;6.00;1.58;;;;;;;;;;5051821;28;20114;-78
2022/05/14 08:48:12;;;;;;;5.28;1.40;;;;;;;;;;5052621;28;20044;-77
2022/05/14 08:50:39;;;;;;;4.15;2.67;;;;;;;;;;5034833;28;20052;-78
2022/05/14 08:53:09;;;;;;;5.72;1.15;;;;;;;;;;5051373;28;20125;-76
2022/05/14 08:55:56;;;;;;;7.95;1.60;;;;;;;;;;5052793;28;20393;-79
2022/05/14 08:58:34;;;;;;;5.93;1.48;;;;;;;;;;5052512;28;20057;-78
2022/05/14 09:01:02;;;;;;;2.50;1.30;;;;;;;;;;5052448;28;20029;-78
2022/05/14 09:03:28;;;;;;;7.90;1.40;;;;;;;;;;5051219;28;20120;-77
2022/05/14 09:05:55;;;;;;;4.85;1.40;;;;;;;;;;5052560;28;20456;-77
2022/05/14 09:08:21;;;;;;;9.15;5.05;;;;;;;;;;5051395;28;20029;-77
2022/05/14 09:10:59;;;;;;;4.70;1.38;;;;;;;;;;5052600;28;20051;-77
2022/05/14 09:13:27;;;;;;;4.35;1.70;;;;;;;;;;5050875;28;20024;-76
2022/05/14 09:15:59;;;;;;;5.47;1.63;;;;;;;;;;5051546;28;20485;-77
2022/05/14 09:18:33;;;;;;;6.70;2.20;;;;;;;;;;5051966;28;20040;-76
2022/05/14 09:21:05;;;;;;;4.22;1.40;;;;;;;;;;5052624;28;20041;-77
2022/05/14 09:23:46;;;;;;;5.72;1.70;;;;;;;;;;5050923;28;20031;-77
2022/05/14 09:26:18;;;;;;;4.22;1.67;;;;;;;;;;5051702;28;20538;-79
2022/05/14 09:28:52;;;;;;;4.50;1.67;;;;;;;;;;5051234;28;20035;-76
2022/05/14 09:31:29;;;;;;;5.05;1.77;;;;;;;;;;5050437;28;20023;-77
2022/05/14 09:34:10;;;;;;;4.68;2.70;;;;;;;;;;5034218;28;20029;-76
2022/05/14 09:36:36;;;;;;;5.60;2.15;;;;;;;;;;5033666;28;20032;-77
2022/05/14 09:39:15;;;;;;;4.85;1.92;;;;;;;;;;5033781;28;20112;-76
2022/05/14 09:41:44;;;;;;;4.90;1.58;;;;;;;;;;5050593;28;20020;-78
2022/05/14 09:44:35;;;;;;;2.00;1.60;;;;;;;;;;5051368;28;20024;-77
2022/05/14 09:47:13;;;;;;;5.35;1.73;;;;;;;;;;5051496;28;20028;-77
2022/05/14 09:49:41;;;;;;;5.70;1.98;;;;;;;;;;5052412;28;20036;-77
2022/05/14 09:52:10;;;;;;;7.00;2.03;;;;;;;;;;5035035;28;20039;-76
2022/05/14 09:54:47;;;;;;;3.63;1.98;;;;;;;;;;5052164;28;20106;-76
2022/05/14 09:57:37;;;;;;;5.38;1.52;;;;;;;;;;5050403;28;20055;-78
2022/05/14 10:00:09;;;;;;;3.63;1.63;;;;;;;;;;5050675;28;20500;-76
2022/05/14 10:02:44;;;;;;;4.05;1.65;;;;;;;;;;5050526;28;20037;-76
2022/05/14 10:05:28;;;;;;;4.10;1.40;;;;;;;;;;5033872;28;20166;-76
2022/05/14 10:08:04;;;;;;;2.83;1.30;;;;;;;;;;5051052;28;20036;-75
2022/05/14 10:10:50;;;;;;;3.42;1.10;;;;;;;;;;5051227;28;20025;-76
2022/05/14 10:13:21;;;;;;;4.00;1.27;;;;;;;;;;5051698;28;20116;-76
2022/05/14 10:16:04;;;;;;;5.03;1.10;;;;;;;;;;5050101;28;20481;-77
2022/05/14 10:18:36;;;;;;;2.70;1.08;;;;;;;;;;5033356;28;20554;-76
2022/05/14 10:21:15;;;;;;;;;;;;;;;;;;5033585;28;20104;-75
2022/05/14 10:27:25;;;;;;;3.30;1.25;;;;;;;;;;5051243;28;20068;-74
2022/05/14 10:30:08;;;;;;;4.18;1.00;;;;;;;;;;5033097;28;20048;-77
2022/05/14 10:32:34;;;;;;;4.57;0.98;;;;;;;;;;5050665;28;20507;-76
2022/05/14 10:35:08;;;;;;;4.95;1.20;;;;;;;;;;5049977;28;20020;-75
2022/05/14 10:37:51;;;;;;;6.90;2.08;;;;;;;;;;5050883;28;20051;-75
2022/05/14 10:40:31;;;;;;;3.50;0.90;;;;;;;;;;5049343;28;20095;-76
2022/05/14 10:43:27;;;;;;;3.75;0.98;;;;;;;;;;5051083;28;20025;-77
2022/05/14 10:45:55;;;;;;;4.80;1.33;;;;;;;;;;5049941;28;20091;-77
2022/05/14 10:48:35;;;;;;;4.22;1.50;;;;;;;;;;5049781;28;20025;-77
2022/05/14 10:51:02;;;;;;;5.73;1.10;;;;;;;;;;5033034;28;20025;-78
2022/05/14 10:53:29;;;;;;;3.75;1.20;;;;;;;;;;5050705;28;20032;-76
2022/05/14 10:56:03;;;;;;;4.10;1.13;;;;;;;;;;5050404;28;20033;-76
2022/05/14 10:58:51;;;;;;;5.18;1.20;;;;;;;;;;5032569;28;20025;-76
2022/05/14 11:01:40;;;;;;;6.38;1.20;;;;;;;;;;5032722;28;20036;-77
2022/05/14 11:04:18;;;;;;;4.10;0.80;;;;;;;;;;5049939;28;20036;-78
2022/05/14 11:06:59;;;;;;;3.80;0.90;;;;;;;;;;5032900;28;20511;-76
2022/05/14 11:09:42;;;;;;;4.97;1.10;;;;;;;;;;5050465;28;20033;-77
2022/05/14 11:12:19;;;;;;;1.25;0.80;;;;;;;;;;5050523;28;20040;-78
2022/05/14 11:14:48;;;;;;;3.13;1.17;;;;;;;;;;5050858;28;20036;-77
2022/05/14 11:17:18;;;;;;;5.00;1.50;;;;;;;;;;5049181;28;20036;-76
2022/05/14 11:19:44;;;;;;;4.75;0.90;;;;;;;;;;5032560;28;20163;-77
2022/05/14 11:22:41;;;;;;;8.38;1.30;;;;;;;;;;5050620;28;20032;-78
2022/05/14 11:25:14;;;;;;;2.83;0.98;;;;;;;;;;5038098;28;20389;-77
2022/05/14 11:27:40;;;;;;;3.83;1.30;;;;;;;;;;5051917;28;20435;-77
2022/05/14 11:30:11;;;;;;;4.65;1.27;;;;;;;;;;5053212;28;20404;-77
2022/05/14 11:32:48;;;;;;;1.75;0.93;;;;;;;;;;5052788;28;20417;-75
2022/05/14 11:35:15;;;;;;;1.85;1.10;;;;;;;;;;5054628;28;20036;-79
2022/05/14 11:37:47;;;;;;;5.70;1.17;;;;;;;;;;5052653;28;20503;-79
2022/05/14 11:40:21;;;;;;;6.18;1.15;;;;;;;;;;5036619;28;20037;-78
2022/05/14 11:42:49;;;;;;;6.78;1.30;;;;;;;;;;5054326;28;20059;-79
2022/05/14 11:45:20;;;;;;;5.68;1.80;;;;;;;;;;5052513;28;20522;-79
2022/05/14 11:48:20;;;;;;;2.47;1.23;;;;;;;;;;5052818;28;20029;-78
2022/05/14 11:51:16;;;;;;;5.57;1.33;;;;;;;;;;5053821;28;20515;-79
2022/05/14 11:53:49;;;;;;;11.80;1.80;;;;;;;;;;5054059;28;20045;-78
2022/05/14 11:56:35;;;;;;;2.72;1.65;;;;;;;;;;5054505;28;20428;-78
2022/05/14 11:59:03;;;;;;;2.58;1.27;;;;;;;;;;5052447;28;20027;-77
2022/05/14 12:01:34;;;;;;;3.00;1.25;;;;;;;;;;5036096;28;20041;-78
2022/05/14 12:04:02;;;;;;;8.10;1.20;;;;;;;;;;5036612;28;20028;-79
2022/05/14 12:06:42;;;;;;;5.22;1.10;;;;;;;;;;5053326;28;20162;-78
2022/05/14 12:09:17;;;;;;;4.55;1.20;;;;;;;;;;5035980;28;20029;-79
2022/05/14 12:11:59;;;;;;;3.33;1.15;;;;;;;;;;5036159;28;20036;-79
2022/05/14 12:14:33;;;;;;;5.60;1.10;;;;;;;;;;5052165;28;20392;-79
2022/05/14 12:17:01;;;;;;;6.45;1.42;;;;;;;;;;5053716;28;20025;-79
2022/05/14 12:19:30;;;;;;;5.18;1.77;;;;;;;;;;5052060;28;20548;-79
2022/05/14 12:22:18;;;;;;;5.45;1.10;;;;;;;;;;5053487;28;20021;-77
2022/05/14 12:25:01;;;;;;;4.90;1.35;;;;;;;;;;5055260;28;20393;-78
2022/05/14 12:27:28;;;;;;;5.00;1.30;;;;;;;;;;5035918;28;20029;-80
2022/05/14 12:30:01;;;;;;;3.75;1.30;;;;;;;;;;5053784;28;20057;-78
2022/05/14 12:35:21;;;;;;;4.53;1.40;;;;;;;;;;5053530;28;20397;-78
2022/05/14 12:37:47;;;;;;;9.77;1.80;;;;;;;;;;5051789;28;20120;-79
2022/05/14 12:40:26;;;;;;;4.00;1.02;;;;;;;;;;5052021;28;20079;-79
2022/05/14 12:42:53;;;;;;;3.95;1.40;;;;;;;;;;5037019;28;20128;-79
2022/05/14 12:45:19;;;;;;;4.53;1.52;;;;;;;;;;5035376;28;20021;-78
2022/05/14 12:47:46;;;;;;;6.40;1.45;;;;;;;;;;5053253;28;20027;-79
2022/05/14 12:50:26;;;;;;;8.77;2.08;;;;;;;;;;5035404;28;20526;-78
2022/05/14 12:52:57;;;;;;;5.25;1.17;;;;;;;;;;5053067;28;20017;-78
2022/05/14 12:55:25;;;;;;;3.90;1.13;;;;;;;;;;5053487;28;20021;-80
2022/05/14 12:57:52;;;;;;;4.75;1.23;;;;;;;;;;5053252;28;20033;-78
2022/05/14 13:00:21;;;;;;;5.43;1.10;;;;;;;;;;5052241;28;20052;-81
2022/05/14 13:03:07;;;;;;;5.25;1.45;;;;;;;;;;5051207;28;20021;-78
2022/05/14 13:05:34;;;;;;;4.82;1.60;;;;;;;;;;5053028;28;20029;-80
2022/05/14 13:08:07;;;;;;;3.38;1.00;;;;;;;;;;5035622;28;20032;-79
2022/05/14 13:10:33;;;;;;;5.03;1.45;;;;;;;;;;5034956;28;20027;-77
2022/05/14 13:13:02;;;;;;;9.00;0.93;;;;;;;;;;5034850;28;20029;-79
2022/05/14 13:15:36;;;;;;;10.57;1.30;;;;;;;;;;5035216;28;20029;-78
2022/05/14 13:18:19;;;;;;;4.35;1.33;;;;;;;;;;5035304;28;20253;-79
2022/05/14 13:20:45;;;;;;;3.78;1.33;;;;;;;;;;5052904;28;20025;-79
2022/05/14 13:23:21;;;;;;;2.75;1.35;;;;;;;;;;5035200;28;20032;-78
2022/05/14 13:25:58;;;;;;;6.55;1.10;;;;;;;;;;5051645;28;20028;-78
2022/05/14 13:28:36;;;;;;;2.42;1.00;;;;;;;;;;5035298;28;20028;-79
2022/05/14 13:31:05;;;;;;;3.75;1.50;;;;;;;;;;5052594;28;20029;-78
2022/05/14 13:33:40;;;;;;;11.40;6.20;;;;;;;;;;5052476;28;20032;-80
2022/05/14 13:39:03;;;;;;;4.65;1.15;;;;;;;;;;5053558;28;20573;-79
2022/05/14 13:41:32;;;;;;;;;;;;;;;;;;5052327;28;20131;-79
2022/05/14 13:44:04;;;;;;;3.65;1.48;;;;;;;;;;5052668;28;19912;-79
2022/05/14 13:46:34;;;;;;;5.53;1.67;;;;;;;;;;5050272;28;20569;-80
2022/05/14 13:49:02;;;;;;;6.47;1.40;;;;;;;;;;5033319;28;20028;-79
2022/05/14 13:51:37;;;;;;;3.58;1.08;;;;;;;;;;5050200;28;20645;-79
2022/05/14 13:54:28;;;;;;;3.55;0.90;;;;;;;;;;5052575;28;20048;-80
2022/05/14 13:57:02;;;;;;;6.05;1.48;;;;;;;;;;5051881;28;20479;-81
2022/05/14 13:59:31;;;;;;;5.97;1.13;;;;;;;;;;5050402;28;20033;-80
2022/05/14 14:02:07;;;;;;;2.28;0.80;;;;;;;;;;5034361;28;20024;-79
2022/05/14 14:04:36;;;;;;;3.45;1.20;;;;;;;;;;5051224;28;20040;-80
2022/05/14 14:07:05;;;;;;;3.55;1.10;;;;;;;;;;5051917;28;20017;-80
2022/05/14 14:09:31;;;;;;;6.53;1.80;;;;;;;;;;5063502;28;20020;-79
2022/05/14 14:11:57;;;;;;;4.32;1.17;;;;;;;;;;5050571;28;20029;-80
2022/05/14 14:14:23;;;;;;;1.65;1.02;;;;;;;;;;5050528;28;20040;-78
2022/05/14 14:16:50;;;;;;;4.30;0.90;;;;;;;;;;5032692;28;20163;-79
2022/05/14 14:19:16;;;;;;;2.67;1.10;;;;;;;;;;5050435;28;20391;-77
2022/05/14 14:21:41;;;;;;;1.70;1.00;;;;;;;;;;5049359;28;20427;-78
2022/05/14 14:24:12;;;;;;;2.35;1.02;;;;;;;;;;5051770;28;20017;-78
2022/05/14 14:26:37;;;;;;;;;;;;;;;;;;5049575;28;20483;-79
2022/05/14 14:29:03;;;;;;;3.05;0.93;;;;;;;;;;5051293;28;19921;-80
2022/05/14 14:31:29;;;;;;;6.72;1.00;;;;;;;;;;5045641;28;20021;-79
2022/05/14 14:33:55;;;;;;;5.20;1.20;;;;;;;;;;5049252;28;20432;-79
2022/05/14 14:36:23;;;;;;;3.47;1.50;;;;;;;;;;5050788;28;20029;-79
2022/05/14 14:38:48;;;;;;;5.50;1.35;;;;;;;;;;5049465;28;20041;-79
2022/05/14 14:41:20;;;;;;;2.42;0.90;;;;;;;;;;5047049;28;20041;-77
2022/05/14 14:43:46;;;;;;;3.42;1.02;;;;;;;;;;5050663;28;20017;-80
2022/05/14 14:46:12;;;;;;;9.43;1.17;;;;;;;;;;5050756;28;20112;-80
2022/05/14 14:48:38;;;;;;;9.20;1.23;;;;;;;;;;5051118;28;20095;-78
2022/05/14 14:51:07;;;;;;;6.05;1.42;;;;;;;;;;5051089;28;20029;-80
2022/05/14 14:53:34;;;;;;;3.30;1.20;;;;;;;;;;5051806;28;20732;-80
2022/05/14 14:56:01;;;;;;;4.35;1.20;;;;;;;;;;5051705;28;20021;-81
2022/05/14 14:58:27;;;;;;;7.40;1.60;;;;;;;;;;5033530;28;20013;-80
2022/05/14 15:00:54;;;;;;;4.15;1.50;;;;;;;;;;5051737;28;20465;-79
2022/05/14 15:03:28;;;;;;;7.25;1.42;;;;;;;;;;5054295;28;20020;-79
2022/05/14 15:05:57;;;;;;;4.07;1.45;;;;;;;;;;5037474;28;20036;-80
2022/05/14 15:08:26;;;;;;;4.88;1.60;;;;;;;;;;5054262;28;20491;-80
2022/05/14 15:10:53;;;;;;;5.38;1.50;;;;;;;;;;5053831;28;20365;-79
2022/05/14 15:13:23;;;;;;;3.65;1.58;;;;;;;;;;5054872;28;20029;-81
2022/05/14 15:15:48;;;;;;;4.75;1.48;;;;;;;;;;5053309;28;20380;-82
2022/05/14 15:18:14;;;;;;;2.33;1.10;;;;;;;;;;5054284;28;20024;-81
2022/05/14 15:20:41;;;;;;;5.60;1.55;;;;;;;;;;5049195;28;20151;-81